Time;durP1;ratioP1;P1;durP2;ratioP2;P2;SDS_P1;SDS_P2;PMS_P1;PMS_P2;Temp;Humidity;BMP_temperature;BMP_pressure;BME280_temperature;BME280_humidity;BME280_pressure;Samples;Min_cycle;Max_cycle;Signal;HPM_P1;HPM_P2
2022/01/24 00:00:39;;;;;;;0.50;0.40;;;5.40;99.90;;;;;;5017850;28;20201;-79
2022/01/24 00:03:06;;;;;;;0.50;0.40;;;5.40;99.90;;;;;;5017216;28;20220;-79
2022/01/24 00:05:33;;;;;;;0.50;0.40;;;5.40;99.90;;;;;;5016515;28;20212;-79
2022/01/24 00:08:00;;;;;;;0.50;0.40;;;5.50;99.90;;;;;;5016996;28;20195;-78
2022/01/24 00:10:28;;;;;;;0.50;0.40;;;5.50;99.90;;;;;;5017077;28;20212;-78
2022/01/24 00:13:20;;;;;;;0.50;0.40;;;5.50;99.90;;;;;;5016747;28;20216;-79
2022/01/24 00:15:58;;;;;;;0.50;0.40;;;5.60;99.90;;;;;;5017945;28;20535;-79
2022/01/24 00:18:35;;;;;;;0.50;0.40;;;5.60;99.90;;;;;;5017161;28;20780;-78
2022/01/24 00:26:46;;;;;;;0.50;0.40;;;5.50;99.90;;;;;;5024241;28;20238;-79
2022/01/24 00:29:13;;;;;;;0.50;0.40;;;5.50;99.90;;;;;;5016600;28;20704;-78
2022/01/24 00:31:41;;;;;;;0.50;0.40;;;5.40;99.90;;;;;;5016159;28;20718;-79
2022/01/24 00:34:08;;;;;;;0.60;0.52;;;5.40;99.90;;;;;;5016170;28;20561;-78
2022/01/24 00:36:36;;;;;;;0.82;0.82;;;5.40;99.90;;;;;;5015846;28;20197;-79
2022/01/24 00:39:03;;;;;;;0.50;0.40;;;5.30;99.90;;;;;;5014836;28;20215;-78
2022/01/24 00:41:32;;;;;;;0.50;0.40;;;5.20;99.90;;;;;;5015251;28;20252;-78
2022/01/24 00:44:22;;;;;;;0.50;0.40;;;5.20;99.90;;;;;;5015007;28;20242;-78
2022/01/24 00:46:55;;;;;;;0.50;0.40;;;5.10;99.90;;;;;;5014990;28;20278;-79
2022/01/24 00:49:43;;;;;;;0.90;0.82;;;5.10;99.90;;;;;;5014323;28;20576;-79
2022/01/24 00:54:54;;;;;;;0.50;0.40;;;5.00;99.90;;;;;;5014255;28;20184;-78
2022/01/24 00:57:22;;;;;;;0.50;0.40;;;5.00;99.90;;;;;;5015666;28;20585;-78
2022/01/24 00:59:50;;;;;;;0.50;0.40;;;5.00;99.90;;;;;;5014413;28;20208;-78
2022/01/24 01:02:19;;;;;;;0.50;0.40;;;5.10;99.90;;;;;;5014652;28;20216;-79
2022/01/24 01:05:01;;;;;;;0.50;0.40;;;5.10;99.90;;;;;;5015310;28;20192;-78
2022/01/24 01:07:34;;;;;;;0.50;0.40;;;5.10;99.90;;;;;;5016059;28;20179;-78
2022/01/24 01:18:17;;;;;;;0.50;0.40;;;5.20;99.90;;;;;;5015455;28;20215;-78
2022/01/24 01:23:34;;;;;;;0.50;0.40;;;5.20;99.90;;;;;;5010351;28;20554;-79
2022/01/24 01:26:05;;;;;;;0.50;0.40;;;5.30;99.90;;;;;;5015857;28;20200;-78
2022/01/24 01:28:33;;;;;;;0.50;0.40;;;5.30;99.90;;;;;;5015893;28;20199;-78
2022/01/24 01:31:05;;;;;;;0.50;0.40;;;5.30;99.90;;;;;;5014680;28;20196;-79
2022/01/24 01:33:44;;;;;;;0.50;0.40;;;5.30;99.90;;;;;;5015799;28;20220;-78
2022/01/24 01:36:16;;;;;;;0.50;0.40;;;5.30;99.90;;;;;;5015999;28;20181;-78
2022/01/24 01:39:12;;;;;;;0.50;0.40;;;5.30;99.90;;;;;;5015708;28;20496;-78
2022/01/24 01:52:47;;;;;;;0.50;0.40;;;5.30;99.90;;;;;;5012112;28;20219;-78
2022/01/24 01:55:26;;;;;;;0.50;0.50;;;5.30;99.90;;;;;;5011453;28;20189;-78
2022/01/24 01:57:52;;;;;;;0.50;0.40;;;5.30;99.90;;;;;;5011653;28;20204;-78
2022/01/24 02:00:19;;;;;;;0.50;0.40;;;5.30;99.90;;;;;;5010771;28;20197;-77
2022/01/24 02:02:47;;;;;;;0.60;0.50;;;5.30;99.90;;;;;;5011428;28;20244;-77
2022/01/24 02:05:15;;;;;;;0.50;0.40;;;5.30;99.90;;;;;;5015570;28;20196;-77
2022/01/24 02:07:47;;;;;;;0.50;0.40;;;5.30;99.90;;;;;;5015776;28;20219;-77
2022/01/24 02:10:14;;;;;;;0.50;0.40;;;5.40;99.90;;;;;;5015008;28;20731;-78
2022/01/24 02:12:40;;;;;;;0.50;0.40;;;5.30;99.90;;;;;;5015504;28;20219;-78
2022/01/24 02:15:09;;;;;;;0.50;0.40;;;5.40;99.90;;;;;;5015368;28;20208;-77
2022/01/24 02:17:47;;;;;;;0.50;0.40;;;5.30;99.90;;;;;;5015669;28;20200;-78
2022/01/24 02:20:37;;;;;;;0.50;0.40;;;5.30;99.90;;;;;;5015410;28;20180;-77
2022/01/24 02:23:20;;;;;;;0.60;0.50;;;5.40;99.90;;;;;;5015037;28;20234;-78
2022/01/24 02:25:47;;;;;;;0.50;0.40;;;5.30;99.90;;;;;;5015728;28;20183;-77
2022/01/24 02:28:16;;;;;;;0.50;0.40;;;5.30;99.90;;;;;;5018253;28;20206;-77
2022/01/24 02:31:04;;;;;;;0.50;0.40;;;5.30;99.90;;;;;;5016908;28;20193;-78
2022/01/24 02:33:30;;;;;;;0.50;0.40;;;5.30;99.90;;;;;;5014481;28;20200;-77
2022/01/24 02:35:57;;;;;;;0.50;0.40;;;5.30;99.90;;;;;;5014444;28;20203;-77
2022/01/24 02:38:38;;;;;;;0.50;0.40;;;5.20;99.90;;;;;;5014437;28;20228;-77
2022/01/24 02:49:25;;;;;;;0.50;0.40;;;5.30;99.90;;;;;;4983415;28;20242;-77
2022/01/24 02:51:53;;;;;;;0.50;0.50;;;5.20;99.90;;;;;;5013735;28;20216;-77
2022/01/24 02:54:23;;;;;;;0.50;0.40;;;5.20;99.90;;;;;;5013879;28;20200;-77
2022/01/24 02:56:50;;;;;;;0.50;0.40;;;5.20;99.90;;;;;;5014376;28;20227;-78
2022/01/24 02:59:17;;;;;;;0.50;0.40;;;5.20;99.90;;;;;;5013371;28;20216;-78
2022/01/24 03:01:44;;;;;;;0.50;0.50;;;5.10;99.90;;;;;;5013793;28;20211;-78
2022/01/24 03:04:11;;;;;;;0.50;0.40;;;5.10;99.90;;;;;;5013747;28;20203;-78
2022/01/24 03:06:38;;;;;;;0.60;0.60;;;5.10;99.90;;;;;;5013794;28;20192;-77
2022/01/24 03:09:07;;;;;;;0.50;0.40;;;5.20;99.90;;;;;;5013643;28;20204;-77
2022/01/24 03:11:56;;;;;;;0.50;0.45;;;5.20;99.90;;;;;;5013799;28;20585;-77
2022/01/24 03:14:25;;;;;;;0.50;0.40;;;5.20;99.90;;;;;;5013647;28;20196;-78
2022/01/24 03:16:53;;;;;;;0.50;0.40;;;5.20;99.90;;;;;;5013851;28;20192;-78
2022/01/24 03:19:19;;;;;;;0.50;0.40;;;5.20;99.90;;;;;;5013734;28;20212;-77
2022/01/24 03:21:46;;;;;;;0.50;0.40;;;5.20;99.90;;;;;;5013544;28;20221;-77
2022/01/24 03:24:14;;;;;;;0.50;0.40;;;5.20;99.90;;;;;;5013779;28;20196;-78
2022/01/24 03:26:42;;;;;;;0.50;0.40;;;5.20;99.90;;;;;;5013956;28;20211;-77
2022/01/24 03:29:09;;;;;;;0.60;0.60;;;5.30;99.90;;;;;;5013378;28;20193;-77
2022/01/24 03:34:03;;;;;;;0.50;0.40;;;5.30;99.90;;;;;;5094114;22;20223;-78
2022/01/24 03:36:31;;;;;;;0.50;0.40;;;5.30;99.90;;;;;;5050963;28;20241;-79
2022/01/24 03:38:57;;;;;;;13.93;12.75;;;5.30;99.90;;;;;;5053116;28;20214;-75
2022/01/24 03:41:24;;;;;;;0.50;0.40;;;5.30;99.90;;;;;;5053762;28;20201;-75
2022/01/24 03:43:53;;;;;;;0.50;0.40;;;5.30;99.90;;;;;;5053894;28;20217;-79
2022/01/24 03:46:26;;;;;;;0.50;0.40;;;5.30;99.90;;;;;;5054827;28;20196;-78
2022/01/24 03:48:56;;;;;;;0.50;0.40;;;5.30;99.90;;;;;;5053315;28;20196;-80
2022/01/24 03:51:25;;;;;;;0.50;0.40;;;5.30;99.90;;;;;;5055981;28;20198;-78
2022/01/24 03:53:51;;;;;;;0.50;0.40;;;5.30;99.90;;;;;;5056934;28;20219;-78
2022/01/24 03:56:18;;;;;;;0.50;0.40;;;5.30;99.90;;;;;;5062987;28;20191;-80
2022/01/24 03:58:46;;;;;;;0.50;0.40;;;5.40;99.90;;;;;;5072697;28;20194;-79
2022/01/24 04:01:14;;;;;;;0.50;0.40;;;5.40;99.90;;;;;;5070900;28;20202;-79
2022/01/24 04:03:42;;;;;;;0.50;0.40;;;5.40;99.90;;;;;;5062628;28;20272;-80
2022/01/24 04:06:09;;;;;;;0.50;0.40;;;5.40;99.90;;;;;;5054762;28;20199;-79
2022/01/24 04:08:36;;;;;;;0.50;0.40;;;5.50;99.90;;;;;;5054457;28;20190;-80
2022/01/24 04:11:09;;;;;;;0.50;0.40;;;5.50;99.90;;;;;;5053347;28;20200;-80
2022/01/24 04:13:39;;;;;;;0.50;0.40;;;5.40;99.90;;;;;;5054080;28;20284;-79
2022/01/24 04:19:03;;;;;;;0.55;0.55;;;5.40;99.90;;;;;;5049700;28;20698;-79
2022/01/24 04:21:32;;;;;;;0.50;0.40;;;5.30;99.90;;;;;;5054036;28;20229;-80
2022/01/24 04:24:04;;;;;;;0.50;0.40;;;5.30;99.90;;;;;;5053427;28;20210;-80
2022/01/24 04:26:32;;;;;;;0.50;0.40;;;5.30;99.90;;;;;;5053742;28;20179;-79
2022/01/24 04:28:59;;;;;;;0.60;0.55;;;5.30;99.90;;;;;;5055251;28;20191;-78
2022/01/24 04:31:27;;;;;;;0.50;0.40;;;5.30;99.90;;;;;;5053746;28;20211;-78
2022/01/24 04:33:56;;;;;;;0.50;0.40;;;5.20;99.90;;;;;;5053450;28;20223;-77
2022/01/24 04:36:24;;;;;;;0.50;0.50;;;5.20;99.90;;;;;;5054272;28;20226;-78
2022/01/24 04:38:50;;;;;;;0.50;0.40;;;5.20;99.90;;;;;;5054191;28;20212;-78
2022/01/24 04:41:21;;;;;;;0.50;0.40;;;5.30;99.90;;;;;;5052833;28;20202;-79
2022/01/24 04:44:03;;;;;;;0.50;0.40;;;5.30;99.90;;;;;;5053540;28;20265;-78
2022/01/24 04:46:49;;;;;;;0.50;0.40;;;5.30;99.90;;;;;;5054399;28;20248;-79
2022/01/24 04:52:17;;;;;;;0.60;0.60;;;5.20;99.90;;;;;;5054322;28;21010;-78
2022/01/24 04:54:44;;;;;;;0.50;0.40;;;5.30;99.90;;;;;;5054657;28;20186;-78
2022/01/24 04:57:12;;;;;;;0.50;0.40;;;5.30;99.90;;;;;;5054743;28;20202;-78
2022/01/24 04:59:40;;;;;;;0.50;0.40;;;5.30;99.90;;;;;;5054726;28;20214;-78
2022/01/24 05:02:07;;;;;;;0.50;0.40;;;5.30;99.90;;;;;;5055177;28;20218;-78
2022/01/24 05:04:36;;;;;;;0.50;0.40;;;5.30;99.90;;;;;;5055004;28;20218;-78
2022/01/24 05:07:03;;;;;;;2.78;2.67;;;5.30;99.90;;;;;;5054745;28;20198;-78
2022/01/24 05:09:35;;;;;;;0.50;0.40;;;5.30;99.90;;;;;;5053495;28;20195;-78
2022/01/24 05:12:07;;;;;;;0.50;0.40;;;5.30;99.90;;;;;;5053120;28;20750;-78
2022/01/24 05:25:33;;;;;;;0.50;0.40;;;5.30;99.90;;;;;;5053652;28;20675;-78
2022/01/24 05:27:59;;;;;;;0.50;0.40;;;5.30;99.90;;;;;;5054147;28;20197;-78
2022/01/24 05:30:26;;;;;;;0.50;0.40;;;5.20;99.90;;;;;;5054040;28;20198;-78
2022/01/24 05:32:53;;;;;;;0.50;0.40;;;5.30;99.90;;;;;;5053347;28;20231;-78
2022/01/24 05:35:21;;;;;;;0.50;0.40;;;5.30;99.90;;;;;;5053620;28;20196;-80
2022/01/24 05:37:48;;;;;;;0.50;0.40;;;5.30;99.90;;;;;;5054354;28;20210;-76
2022/01/24 05:40:15;;;;;;;0.50;0.40;;;5.40;99.90;;;;;;5057966;28;20236;-78
2022/01/24 05:42:41;;;;;;;0.50;0.40;;;5.40;99.90;;;;;;5057810;28;20212;-75
2022/01/24 05:45:09;;;;;;;0.50;0.40;;;5.40;99.90;;;;;;5058244;28;20194;-79
2022/01/24 05:47:36;;;;;;;0.50;0.40;;;5.30;99.90;;;;;;5057973;28;20203;-80
2022/01/24 05:50:04;;;;;;;0.50;0.40;;;5.30;99.90;;;;;;5057729;28;20584;-80
2022/01/24 05:52:32;;;;;;;0.50;0.40;;;5.30;99.90;;;;;;5058082;28;20364;-79
2022/01/24 05:54:59;;;;;;;0.50;0.40;;;5.30;99.90;;;;;;5057229;28;20199;-80
2022/01/24 05:57:25;;;;;;;0.50;0.40;;;5.30;99.90;;;;;;5058782;28;20211;-80
2022/01/24 05:59:52;;;;;;;0.50;0.40;;;5.30;99.90;;;;;;5056870;28;20214;-75
2022/01/24 06:02:19;;;;;;;0.50;0.40;;;5.30;99.90;;;;;;5057504;28;20227;-79
2022/01/24 06:04:46;;;;;;;0.50;0.40;;;5.30;99.90;;;;;;5057609;28;20202;-79
2022/01/24 06:07:12;;;;;;;0.50;0.40;;;5.30;99.90;;;;;;5057595;28;20199;-80
2022/01/24 06:09:40;;;;;;;0.50;0.40;;;5.30;99.90;;;;;;5056590;28;20187;-79
2022/01/24 06:12:09;;;;;;;0.50;0.40;;;5.40;99.90;;;;;;5057321;28;20226;-78
2022/01/24 06:14:36;;;;;;;0.50;0.40;;;5.40;99.90;;;;;;5057650;28;20580;-80
2022/01/24 06:17:03;;;;;;;0.63;0.63;;;5.40;99.90;;;;;;5057785;28;20196;-79
2022/01/24 06:19:30;;;;;;;0.50;0.40;;;5.40;99.90;;;;;;5056950;28;20214;-79
2022/01/24 06:21:57;;;;;;;0.50;0.40;;;5.40;99.90;;;;;;5057028;28;20201;-80
2022/01/24 06:24:23;;;;;;;0.50;0.40;;;5.30;99.90;;;;;;5056934;28;20561;-79
2022/01/24 06:26:51;;;;;;;0.50;0.40;;;5.30;99.90;;;;;;5057351;28;20205;-78
2022/01/24 06:29:18;;;;;;;0.50;0.40;;;5.30;99.90;;;;;;5056290;28;20660;-77
2022/01/24 06:31:45;;;;;;;0.50;0.40;;;5.30;99.90;;;;;;5056939;28;20202;-79
2022/01/24 06:34:12;;;;;;;1.40;1.40;;;5.30;99.90;;;;;;5057012;28;20196;-78
2022/01/24 06:36:38;;;;;;;0.50;0.40;;;5.20;99.90;;;;;;5056847;28;20199;-79
2022/01/24 06:39:06;;;;;;;0.50;0.40;;;5.20;99.90;;;;;;5056540;28;20227;-78
2022/01/24 06:41:35;;;;;;;0.50;0.40;;;5.20;99.90;;;;;;5056451;28;20234;-78
2022/01/24 06:44:04;;;;;;;0.80;0.77;;;5.20;99.90;;;;;;5057834;28;20210;-78
2022/01/24 06:46:31;;;;;;;0.70;0.70;;;5.20;99.90;;;;;;5057474;28;20194;-79
2022/01/24 06:48:57;;;;;;;0.50;0.40;;;5.20;99.90;;;;;;5056376;28;20294;-76
2022/01/24 06:51:24;;;;;;;0.50;0.40;;;5.20;99.90;;;;;;5057223;28;20200;-79
2022/01/24 06:53:51;;;;;;;0.50;0.40;;;5.20;99.90;;;;;;5057722;28;20210;-80
2022/01/24 06:56:18;;;;;;;0.50;0.40;;;5.20;99.90;;;;;;5056854;28;20686;-79
2022/01/24 06:58:45;;;;;;;1.00;0.70;;;5.20;99.90;;;;;;5056774;28;20226;-78
2022/01/24 07:01:13;;;;;;;0.50;0.40;;;5.20;99.90;;;;;;5056746;28;20225;-80
2022/01/24 07:03:40;;;;;;;0.50;0.50;;;5.20;99.90;;;;;;5056827;28;20210;-77
2022/01/24 07:06:07;;;;;;;1.25;1.15;;;5.20;99.90;;;;;;5056337;28;20206;-80
2022/01/24 07:08:33;;;;;;;1.13;0.90;;;5.20;99.90;;;;;;5056315;28;20190;-80
2022/01/24 07:11:00;;;;;;;0.50;0.40;;;5.20;99.90;;;;;;5055801;28;20547;-79
2022/01/24 07:13:27;;;;;;;0.60;0.50;;;5.10;99.90;;;;;;5056700;28;20215;-80
2022/01/24 07:15:59;;;;;;;0.50;0.50;;;5.20;99.90;;;;;;5056546;28;20568;-79
2022/01/24 07:21:11;;;;;;;0.50;0.40;;;5.20;99.90;;;;;;5042637;28;20231;-79
2022/01/24 07:23:38;;;;;;;1.42;1.42;;;5.10;99.90;;;;;;5035201;28;20224;-76
2022/01/24 07:26:05;;;;;;;0.50;0.40;;;5.10;99.90;;;;;;5034739;28;20191;-81
2022/01/24 07:28:32;;;;;;;0.50;0.40;;;5.10;99.90;;;;;;5036051;28;20203;-81
2022/01/24 07:30:58;;;;;;;0.50;0.40;;;5.10;99.90;;;;;;5035918;28;20655;-81
2022/01/24 07:33:28;;;;;;;0.50;0.40;;;5.10;99.90;;;;;;5035692;28;20219;-81
2022/01/24 07:35:54;;;;;;;0.50;0.40;;;5.10;99.90;;;;;;5036235;28;20200;-80
2022/01/24 07:38:21;;;;;;;0.50;0.40;;;5.10;99.90;;;;;;5036228;28;20211;-81
2022/01/24 07:40:50;;;;;;;0.50;0.40;;;5.20;99.90;;;;;;5037196;28;20270;-80
2022/01/24 07:43:17;;;;;;;0.50;0.40;;;5.20;99.90;;;;;;5036445;28;20257;-80
2022/01/24 07:45:46;;;;;;;0.50;0.40;;;5.20;99.90;;;;;;5035339;28;20218;-79
2022/01/24 07:48:17;;;;;;;0.50;0.40;;;5.30;99.90;;;;;;5033437;28;20206;-78
2022/01/24 07:50:47;;;;;;;0.75;0.68;;;5.30;99.90;;;;;;5034167;28;20257;-80
2022/01/24 07:53:15;;;;;;;0.50;0.40;;;5.40;99.90;;;;;;5035547;28;20306;-79
2022/01/24 07:55:42;;;;;;;0.50;0.40;;;5.40;99.90;;;;;;5036582;28;20206;-80
2022/01/24 07:58:09;;;;;;;0.50;0.40;;;5.30;99.90;;;;;;5041469;28;20191;-81
2022/01/24 08:00:37;;;;;;;0.50;0.40;;;5.30;99.90;;;;;;5039777;28;20225;-79
2022/01/24 08:03:03;;;;;;;0.50;0.40;;;5.30;99.90;;;;;;5040287;28;20585;-81
2022/01/24 08:05:30;;;;;;;0.50;0.40;;;5.30;99.90;;;;;;5043663;28;20203;-81
2022/01/24 08:07:58;;;;;;;0.50;0.40;;;5.40;99.90;;;;;;5041948;28;20203;-77
2022/01/24 08:10:25;;;;;;;0.50;0.40;;;5.40;99.90;;;;;;5040974;28;20192;-80
2022/01/24 08:12:52;;;;;;;0.50;0.40;;;5.30;99.90;;;;;;5042402;28;20216;-80
2022/01/24 08:15:19;;;;;;;0.50;0.40;;;5.40;99.90;;;;;;5036929;28;20197;-81
2022/01/24 08:17:46;;;;;;;1.25;1.20;;;5.40;99.90;;;;;;5035753;28;20191;-79
2022/01/24 08:20:14;;;;;;;0.70;0.70;;;5.40;99.90;;;;;;5034687;28;20208;-80
2022/01/24 08:22:41;;;;;;;0.50;0.40;;;5.40;99.90;;;;;;5036791;28;20220;-79
2022/01/24 08:25:11;;;;;;;0.50;0.40;;;5.40;99.90;;;;;;5051367;28;20202;-79
2022/01/24 08:27:39;;;;;;;0.50;0.40;;;5.40;99.90;;;;;;5055235;28;20203;-81
2022/01/24 08:30:08;;;;;;;0.50;0.50;;;5.40;99.90;;;;;;5054518;28;20197;-79
2022/01/24 08:32:34;;;;;;;0.70;0.70;;;5.40;99.90;;;;;;5054888;28;20226;-79
2022/01/24 08:35:01;;;;;;;0.50;0.40;;;5.40;99.90;;;;;;5054597;28;20195;-80
2022/01/24 08:37:28;;;;;;;0.50;0.40;;;5.40;99.90;;;;;;5055701;28;20195;-79
2022/01/24 08:39:56;;;;;;;0.50;0.40;;;5.50;99.90;;;;;;5054845;28;20222;-79
2022/01/24 08:42:31;;;;;;;0.50;0.40;;;5.50;99.90;;;;;;5055248;28;20222;-79
2022/01/24 08:47:43;;;;;;;0.50;0.40;;;5.50;99.90;;;;;;5054735;28;20552;-77
2022/01/24 08:50:10;;;;;;;0.50;0.40;;;5.50;99.90;;;;;;5055150;28;20271;-78
2022/01/24 08:52:37;;;;;;;0.50;0.40;;;5.60;99.90;;;;;;5055313;28;20219;-80
2022/01/24 08:55:04;;;;;;;1.20;1.20;;;5.60;99.90;;;;;;5055428;28;20197;-79
2022/01/24 08:57:32;;;;;;;0.50;0.40;;;5.70;99.90;;;;;;5054241;28;20203;-80
2022/01/24 08:59:59;;;;;;;0.50;0.50;;;5.70;99.90;;;;;;5053982;28;20224;-80
2022/01/24 09:02:26;;;;;;;0.50;0.40;;;5.70;99.90;;;;;;5054290;28;20212;-80
2022/01/24 09:04:52;;;;;;;0.50;0.50;;;5.80;99.90;;;;;;5054714;28;20706;-80
2022/01/24 09:07:20;;;;;;;2.15;1.25;;;5.80;99.90;;;;;;5055514;28;20207;-80
2022/01/24 09:09:47;;;;;;;0.68;0.68;;;5.90;99.90;;;;;;5052563;28;20191;-77
2022/01/24 09:12:14;;;;;;;0.50;0.40;;;5.80;99.90;;;;;;5053121;28;20277;-81
2022/01/24 09:14:47;;;;;;;0.50;0.40;;;5.80;99.90;;;;;;5053957;28;20199;-79
2022/01/24 09:17:14;;;;;;;0.50;0.40;;;5.90;99.90;;;;;;5054651;28;20231;-81
2022/01/24 09:19:41;;;;;;;0.50;0.40;;;6.00;99.90;;;;;;5054043;28;20199;-81
2022/01/24 09:22:08;;;;;;;0.50;0.40;;;6.10;99.90;;;;;;5055056;28;20214;-82
2022/01/24 09:24:36;;;;;;;0.50;0.40;;;6.10;99.90;;;;;;5054706;28;20203;-80
2022/01/24 09:27:03;;;;;;;0.50;0.40;;;6.10;99.90;;;;;;5054042;28;20199;-80
2022/01/24 09:29:30;;;;;;;0.50;0.40;;;6.00;99.90;;;;;;5053722;28;20196;-80
2022/01/24 09:31:58;;;;;;;0.50;0.45;;;5.90;99.90;;;;;;5052293;28;20200;-79
2022/01/24 09:34:25;;;;;;;0.50;0.40;;;5.90;99.90;;;;;;5053779;28;20266;-80
2022/01/24 09:36:52;;;;;;;0.50;0.40;;;6.00;99.90;;;;;;5052020;28;20210;-79
2022/01/24 09:39:19;;;;;;;0.50;0.40;;;5.90;99.90;;;;;;5051980;28;20671;-79
2022/01/24 09:41:47;;;;;;;0.85;0.85;;;5.90;99.90;;;;;;5051730;28;20216;-79
2022/01/24 09:44:14;;;;;;;0.50;0.40;;;5.90;99.90;;;;;;5052805;28;20239;-79
2022/01/24 09:46:43;;;;;;;0.60;0.52;;;6.00;99.90;;;;;;5052595;28;20194;-78
2022/01/24 09:49:13;;;;;;;0.50;0.40;;;6.10;99.90;;;;;;5051302;28;20200;-79
2022/01/24 09:51:40;;;;;;;0.50;0.40;;;6.00;99.90;;;;;;5051919;28;20193;-79
2022/01/24 09:54:08;;;;;;;0.50;0.40;;;6.00;99.90;;;;;;5052271;28;20231;-79
2022/01/24 09:56:35;;;;;;;0.50;0.40;;;6.00;99.90;;;;;;5052257;28;20308;-78
2022/01/24 09:59:02;;;;;;;0.50;0.40;;;6.10;99.90;;;;;;5052014;28;20198;-80
2022/01/24 10:01:30;;;;;;;0.50;0.40;;;6.30;99.90;;;;;;5052936;28;20744;-80
2022/01/24 10:04:16;;;;;;;0.70;0.70;;;6.40;99.90;;;;;;5052790;28;20358;-80
2022/01/24 10:07:01;;;;;;;0.50;0.40;;;6.40;99.90;;;;;;5052229;28;20185;-79
2022/01/24 10:09:34;;;;;;;0.50;0.40;;;6.50;99.90;;;;;;5052069;28;20215;-79
2022/01/24 10:12:05;;;;;;;0.77;0.60;;;6.60;99.90;;;;;;5051951;28;20185;-80
2022/01/24 10:17:28;;;;;;;0.50;0.40;;;6.60;99.90;;;;;;5052293;28;20181;-79
2022/01/24 10:19:56;;;;;;;0.50;0.40;;;6.80;99.90;;;;;;5052021;28;20204;-77
2022/01/24 10:22:26;;;;;;;0.50;0.40;;;6.80;99.90;;;;;;5052136;28;20227;-79
2022/01/24 10:24:56;;;;;;;0.55;0.55;;;6.90;99.90;;;;;;5053632;28;20196;-80
2022/01/24 10:27:25;;;;;;;2.05;1.15;;;6.80;99.90;;;;;;5054667;28;20195;-80
2022/01/24 10:29:55;;;;;;;0.90;0.90;;;6.60;99.90;;;;;;5055776;28;20667;-80
2022/01/24 10:32:30;;;;;;;0.50;0.40;;;6.70;99.90;;;;;;5057371;28;20598;-80
2022/01/24 10:35:28;;;;;;;1.45;1.35;;;6.70;99.90;;;;;;5058216;28;20194;-80
2022/01/24 10:38:15;;;;;;;0.50;0.40;;;6.70;99.90;;;;;;5057779;28;20587;-80
2022/01/24 10:40:49;;;;;;;0.60;0.57;;;6.70;99.90;;;;;;5057864;28;20224;-80
2022/01/24 10:43:22;;;;;;;0.50;0.40;;;6.70;99.90;;;;;;5057093;28;20219;-80
2022/01/24 10:45:50;;;;;;;0.73;0.73;;;6.80;99.90;;;;;;5057784;28;20193;-76
2022/01/24 10:48:22;;;;;;;0.50;0.50;;;6.70;99.90;;;;;;5056481;28;20192;-80
2022/01/24 10:51:07;;;;;;;0.50;0.40;;;6.60;99.90;;;;;;5057423;28;20692;-78
2022/01/24 10:53:37;;;;;;;0.50;0.50;;;6.70;99.90;;;;;;5056861;28;20215;-80
2022/01/24 10:56:25;;;;;;;0.50;0.40;;;6.60;99.90;;;;;;5056790;28;20580;-79
2022/01/24 10:58:52;;;;;;;0.50;0.40;;;6.60;99.90;;;;;;5056812;28;20209;-79
2022/01/24 11:01:23;;;;;;;0.50;0.40;;;6.70;99.90;;;;;;5056709;28;20565;-80
2022/01/24 11:03:59;;;;;;;0.60;0.60;;;6.70;99.90;;;;;;5057123;28;20300;-80
2022/01/24 11:06:28;;;;;;;0.50;0.40;;;6.80;99.90;;;;;;5057384;28;20181;-79
2022/01/24 11:09:19;;;;;;;0.50;0.40;;;6.90;99.90;;;;;;5056847;28;20194;-77
2022/01/24 11:11:45;;;;;;;0.50;0.40;;;7.10;99.90;;;;;;5056312;28;20194;-80
2022/01/24 11:14:16;;;;;;;0.75;0.75;;;7.20;99.90;;;;;;5056767;28;20200;-80
2022/01/24 11:16:43;;;;;;;0.50;0.40;;;7.20;99.90;;;;;;5057193;28;20178;-80
2022/01/24 11:19:15;;;;;;;0.50;0.40;;;7.10;99.90;;;;;;5055297;28;20190;-80
2022/01/24 11:21:45;;;;;;;0.50;0.50;;;7.10;99.90;;;;;;5057017;28;20694;-79
2022/01/24 11:24:17;;;;;;;0.63;0.40;;;7.20;99.90;;;;;;5056596;28;20192;-80
2022/01/24 11:26:45;;;;;;;1.15;1.05;;;7.20;99.90;;;;;;5055938;28;20202;-80
2022/01/24 11:29:12;;;;;;;0.50;0.40;;;7.30;99.90;;;;;;5055452;28;20220;-80
2022/01/24 11:31:44;;;;;;;1.55;1.50;;;7.50;99.90;;;;;;5056592;28;20209;-79
2022/01/24 11:34:19;;;;;;;0.50;0.40;;;7.60;99.90;;;;;;5056464;28;20177;-79
2022/01/24 11:36:47;;;;;;;0.50;0.40;;;7.70;99.90;;;;;;5055992;28;20662;-80
2022/01/24 11:39:21;;;;;;;0.80;0.80;;;7.80;99.90;;;;;;5055127;28;20225;-80
2022/01/24 11:41:48;;;;;;;0.50;0.50;;;7.90;99.90;;;;;;5055036;28;20210;-79
2022/01/24 11:44:18;;;;;;;0.50;0.40;;;7.80;99.90;;;;;;5055321;28;20292;-81
2022/01/24 11:46:47;;;;;;;0.50;0.47;;;7.80;99.90;;;;;;5055346;28;20564;-80
2022/01/24 11:49:16;;;;;;;0.50;0.40;;;7.80;99.90;;;;;;5054739;28;20196;-79
2022/01/24 11:51:46;;;;;;;1.25;1.15;;;8.00;99.90;;;;;;5054720;28;20194;-77
2022/01/24 11:54:42;;;;;;;2.17;1.67;;;8.20;99.90;;;;;;5055196;28;20201;-80
2022/01/24 11:57:20;;;;;;;0.50;0.50;;;8.10;99.90;;;;;;5055334;28;20197;-80
2022/01/24 11:59:47;;;;;;;1.20;1.20;;;7.90;99.90;;;;;;5054725;28;20201;-80
2022/01/24 12:02:16;;;;;;;1.15;1.05;;;7.90;99.90;;;;;;5055131;28;20229;-79
2022/01/24 12:04:51;;;;;;;0.50;0.40;;;7.90;99.90;;;;;;5054795;28;20254;-80
2022/01/24 12:07:20;;;;;;;0.50;0.40;;;7.80;99.90;;;;;;5055025;28;20659;-80
2022/01/24 12:09:48;;;;;;;0.50;0.40;;;7.80;99.90;;;;;;5055107;28;20204;-79
2022/01/24 12:12:46;;;;;;;0.50;0.50;;;7.90;99.90;;;;;;5055178;28;20217;-81
2022/01/24 12:15:49;;;;;;;0.70;0.70;;;8.00;99.90;;;;;;5050156;28;20305;-81
2022/01/24 12:18:21;;;;;;;0.60;0.57;;;7.90;99.90;;;;;;5055093;28;20193;-81
2022/01/24 12:20:49;;;;;;;7.63;3.33;;;7.90;99.90;;;;;;5053897;28;20740;-80
2022/01/24 12:23:37;;;;;;;0.50;0.40;;;7.80;99.90;;;;;;5055340;28;20589;-81
2022/01/24 12:26:07;;;;;;;0.50;0.40;;;7.70;99.90;;;;;;5054754;28;20200;-79
2022/01/24 12:28:46;;;;;;;0.50;0.40;;;7.70;99.90;;;;;;5054891;28;20295;-77
2022/01/24 12:31:21;;;;;;;3.63;0.90;;;7.80;99.90;;;;;;5053600;28;20210;-78
2022/01/24 12:34:08;;;;;;;0.50;0.40;;;7.80;99.90;;;;;;5055409;28;20282;-78
2022/01/24 12:36:51;;;;;;;0.50;0.40;;;7.70;99.90;;;;;;5055790;28;20234;-80
2022/01/24 12:39:23;;;;;;;0.50;0.40;;;7.60;99.90;;;;;;5055161;28;20314;-80
2022/01/24 12:41:57;;;;;;;0.50;0.40;;;7.70;99.90;;;;;;5053732;28;20679;-80
2022/01/24 12:47:19;;;;;;;0.50;0.40;;;7.60;99.90;;;;;;5054508;28;20231;-80
2022/01/24 12:49:48;;;;;;;0.50;0.40;;;7.60;99.90;;;;;;5053828;28;20203;-81
2022/01/24 12:52:17;;;;;;;0.50;0.40;;;7.70;99.90;;;;;;5054395;28;20212;-80
2022/01/24 12:54:47;;;;;;;1.13;1.13;;;7.70;99.90;;;;;;5054874;28;20196;-81
2022/01/24 12:57:18;;;;;;;0.93;0.52;;;7.60;99.90;;;;;;5055621;28;20289;-80
2022/01/24 12:59:54;;;;;;;0.50;0.40;;;7.50;99.90;;;;;;5054995;28;20182;-80
2022/01/24 13:02:26;;;;;;;0.50;0.40;;;7.50;99.90;;;;;;5054124;28;20229;-81
2022/01/24 13:04:53;;;;;;;0.50;0.40;;;7.60;99.90;;;;;;5054555;28;20197;-80
2022/01/24 13:07:20;;;;;;;1.25;1.15;;;7.60;99.90;;;;;;5053788;28;20195;-81
2022/01/24 13:09:49;;;;;;;0.60;0.60;;;7.70;99.90;;;;;;5054250;28;20192;-81
2022/01/24 13:12:22;;;;;;;0.50;0.40;;;7.70;99.90;;;;;;5054641;28;20615;-79
2022/01/24 13:14:52;;;;;;;0.60;0.40;;;7.60;99.90;;;;;;5055408;28;20201;-75
2022/01/24 13:22:59;;;;;;;0.50;0.45;;;7.50;99.90;;;;;;5033681;28;20282;-79
2022/01/24 13:25:27;;;;;;;0.50;0.40;;;7.60;99.90;;;;;;5054656;28;20268;-81
2022/01/24 13:27:57;;;;;;;0.50;0.40;;;7.60;99.90;;;;;;5054781;28;20797;-77
2022/01/24 13:30:27;;;;;;;1.40;1.40;;;7.60;99.90;;;;;;5055003;28;20193;-80
2022/01/24 13:32:56;;;;;;;0.50;0.40;;;7.60;99.90;;;;;;5054536;28;20225;-80
2022/01/24 13:35:27;;;;;;;0.50;0.40;;;7.50;99.90;;;;;;5054880;28;20193;-80
2022/01/24 13:37:59;;;;;;;0.50;0.40;;;7.50;99.90;;;;;;5056324;28;20291;-78
2022/01/24 13:40:38;;;;;;;0.88;0.80;;;7.60;99.90;;;;;;5054571;28;20622;-80
2022/01/24 13:43:07;;;;;;;0.50;0.40;;;7.50;99.90;;;;;;5054889;28;20228;-79
2022/01/24 13:45:36;;;;;;;0.50;0.50;;;7.40;99.90;;;;;;5054964;28;20205;-79
2022/01/24 13:48:04;;;;;;;0.50;0.40;;;7.30;99.90;;;;;;5054290;28;20201;-78
2022/01/24 13:50:32;;;;;;;0.50;0.40;;;7.20;99.90;;;;;;5054724;28;20198;-79
2022/01/24 13:52:58;;;;;;;0.50;0.40;;;7.20;99.90;;;;;;5054942;28;20251;-79
2022/01/24 13:55:25;;;;;;;0.60;0.50;;;7.00;99.90;;;;;;5054754;28;20688;-79
2022/01/24 13:57:54;;;;;;;0.50;0.40;;;6.90;99.90;;;;;;5055158;28;20197;-76
2022/01/24 14:00:26;;;;;;;0.50;0.40;;;6.90;99.90;;;;;;5056955;28;20198;-80
2022/01/24 14:03:10;;;;;;;0.50;0.40;;;7.00;99.90;;;;;;5056678;28;20214;-80
2022/01/24 14:05:37;;;;;;;0.50;0.40;;;6.80;99.90;;;;;;5057890;28;20200;-80
2022/01/24 14:08:15;;;;;;;0.50;0.40;;;6.80;99.90;;;;;;5057912;28;20202;-80
2022/01/24 14:10:42;;;;;;;0.50;0.50;;;6.70;99.90;;;;;;5057655;28;20201;-80
2022/01/24 14:13:10;;;;;;;0.50;0.40;;;6.80;99.90;;;;;;5057728;28;20217;-80
2022/01/24 14:15:51;;;;;;;0.60;0.40;;;6.90;99.90;;;;;;5058271;28;20205;-80
2022/01/24 14:18:28;;;;;;;0.50;0.50;;;7.00;99.90;;;;;;5057436;28;20256;-81
2022/01/24 14:20:57;;;;;;;0.50;0.40;;;7.00;99.90;;;;;;5057786;28;20291;-80
2022/01/24 14:23:25;;;;;;;0.50;0.40;;;7.10;99.90;;;;;;5058474;28;20221;-81
2022/01/24 14:25:52;;;;;;;0.80;0.68;;;7.10;99.90;;;;;;5057160;28;20670;-80
2022/01/24 14:28:23;;;;;;;0.50;0.40;;;7.10;99.90;;;;;;5057364;28;20205;-79